Time;durP1;ratioP1;P1;durP2;ratioP2;P2;SDS_P1;SDS_P2;PMS_P1;PMS_P2;Temp;Humidity;BMP_temperature;BMP_pressure;BME280_temperature;BME280_humidity;BME280_pressure;Samples;Min_cycle;Max_cycle;Signal;HPM_P1;HPM_P2
2024/04/15 00:02:04;;;;;;;;;2.00;1.00;;;;;;;;5505708;25;44665;-80
2024/04/15 00:04:29;;;;;;;;;2.67;0.33;;;;;;;;5514428;25;46712;-79
2024/04/15 00:06:55;;;;;;;;;2.00;0.00;;;;;;;;5510712;25;44125;-80
2024/04/15 00:09:24;;;;;;;;;0.33;0.00;;;;;;;;5512145;25;43843;-82
2024/04/15 00:11:54;;;;;;;;;0.67;0.00;;;;;;;;5514596;25;44765;-78
2024/04/15 00:14:20;;;;;;;;;0.67;0.67;;;;;;;;5515207;25;45301;-80
2024/04/15 00:16:45;;;;;;;;;1.00;1.00;;;;;;;;5511179;25;43839;-81
2024/04/15 00:19:10;;;;;;;;;2.00;0.00;;;;;;;;5512553;25;44251;-79
2024/04/15 00:21:36;;;;;;;;;0.33;0.33;;;;;;;;5511333;25;44793;-82
2024/04/15 00:24:02;;;;;;;;;1.00;1.00;;;;;;;;5512578;25;43852;-78
2024/04/15 00:26:27;;;;;;;;;1.67;1.00;;;;;;;;5509808;25;44128;-79
2024/04/15 00:28:52;;;;;;;;;0.00;0.00;;;;;;;;5509245;25;43915;-80
2024/04/15 00:31:18;;;;;;;;;1.00;1.00;;;;;;;;5517660;25;43839;-81
2024/04/15 00:33:46;;;;;;;;;0.00;0.00;;;;;;;;5506298;25;44837;-80
2024/04/15 00:36:12;;;;;;;;;1.33;1.33;;;;;;;;5508200;25;44527;-79
2024/04/15 00:38:37;;;;;;;;;3.67;2.33;;;;;;;;5505597;25;44026;-79
2024/04/15 00:41:04;;;;;;;;;5.00;3.00;;;;;;;;5504726;25;44534;-80
2024/04/15 00:43:29;;;;;;;;;2.00;1.00;;;;;;;;5502293;25;45751;-79
2024/04/15 00:45:54;;;;;;;;;2.00;2.00;;;;;;;;5512470;25;44446;-79
2024/04/15 00:48:20;;;;;;;;;1.67;1.00;;;;;;;;5520507;25;44311;-79
2024/04/15 00:50:46;;;;;;;;;1.67;0.00;;;;;;;;5504655;25;45313;-79
2024/04/15 00:53:15;;;;;;;;;2.67;1.67;;;;;;;;5503104;25;46866;-79
2024/04/15 00:55:44;;;;;;;;;0.33;0.33;;;;;;;;5504765;25;44028;-80
2024/04/15 00:58:47;;;;;;;;;2.00;0.67;;;;;;;;5529389;25;44277;-80
2024/04/15 01:01:28;;;;;;;;;2.00;1.00;;;;;;;;5408847;26;43354;-81
2024/04/15 01:07:15;;;;;;;;;0.67;0.67;;;;;;;;5400756;26;44564;-80
2024/04/15 01:09:41;;;;;;;;;4.00;1.00;;;;;;;;5440165;26;43894;-81
2024/04/15 01:12:06;;;;;;;;;2.33;1.33;;;;;;;;5544624;25;43992;-80
2024/04/15 01:14:32;;;;;;;;;2.00;2.00;;;;;;;;5501633;25;47239;-80
2024/04/15 01:16:57;;;;;;;;;2.00;0.67;;;;;;;;5504393;25;43940;-79
2024/04/15 01:19:22;;;;;;;;;2.00;0.00;;;;;;;;5509668;25;44082;-79
2024/04/15 01:21:48;;;;;;;;;4.67;1.00;;;;;;;;5502144;25;44138;-79
2024/04/15 01:24:18;;;;;;;;;1.00;1.00;;;;;;;;5501827;25;45082;-79
2024/04/15 01:26:47;;;;;;;;;1.00;1.00;;;;;;;;5518442;25;44128;-81
2024/04/15 01:29:12;;;;;;;;;2.00;0.00;;;;;;;;5509187;25;44670;-80
2024/04/15 01:31:37;;;;;;;;;2.00;1.00;;;;;;;;5520252;25;43995;-80
2024/04/15 01:34:03;;;;;;;;;1.00;1.00;;;;;;;;5510525;25;46143;-80
2024/04/15 01:36:28;;;;;;;;;4.33;1.00;;;;;;;;5506084;25;44390;-80
2024/04/15 01:38:53;;;;;;;;;2.00;1.00;;;;;;;;5511628;25;44435;-80
2024/04/15 01:41:18;;;;;;;;;4.00;3.00;;;;;;;;5518823;25;45733;-79
2024/04/15 01:43:43;;;;;;;;;0.00;0.00;;;;;;;;5524220;25;45215;-79
2024/04/15 01:46:09;;;;;;;;;1.67;0.00;;;;;;;;5511060;25;44472;-80
2024/04/15 01:48:34;;;;;;;;;0.67;0.00;;;;;;;;5509180;25;44512;-79
2024/04/15 01:50:59;;;;;;;;;3.00;0.00;;;;;;;;5523610;25;44655;-80
2024/04/15 01:53:25;;;;;;;;;0.00;0.00;;;;;;;;5515056;25;45832;-79
2024/04/15 01:55:50;;;;;;;;;1.00;0.00;;;;;;;;5501834;25;43920;-81
2024/04/15 01:58:15;;;;;;;;;4.00;0.00;;;;;;;;5513094;25;44520;-78
2024/04/15 02:00:41;;;;;;;;;1.00;1.00;;;;;;;;5512279;25;44441;-81
2024/04/15 02:03:07;;;;;;;;;0.00;0.00;;;;;;;;5514623;25;45808;-80
2024/04/15 02:05:33;;;;;;;;;1.00;1.00;;;;;;;;5512944;25;43237;-79
2024/04/15 02:07:59;;;;;;;;;3.00;2.00;;;;;;;;5515971;25;43991;-80
2024/04/15 02:10:25;;;;;;;;;0.00;0.00;;;;;;;;5515961;25;44499;-80
2024/04/15 02:12:51;;;;;;;;;2.33;1.00;;;;;;;;5506265;25;45570;-78
2024/04/15 02:15:16;;;;;;;;;0.00;0.00;;;;;;;;5501525;25;44092;-81
2024/04/15 02:17:43;;;;;;;;;1.00;0.00;;;;;;;;5513538;25;44423;-79
2024/04/15 02:20:09;;;;;;;;;1.00;1.00;;;;;;;;5508881;25;44410;-81
2024/04/15 02:22:35;;;;;;;;;1.00;0.00;;;;;;;;5503109;25;45430;-80
2024/04/15 02:25:03;;;;;;;;;0.00;0.00;;;;;;;;5503556;25;44206;-79
2024/04/15 02:27:34;;;;;;;;;0.00;0.00;;;;;;;;5507877;25;43891;-79
2024/04/15 02:29:59;;;;;;;;;0.00;0.00;;;;;;;;5516823;25;44861;-80
2024/04/15 02:32:26;;;;;;;;;5.67;2.00;;;;;;;;5507047;25;46197;-81
2024/04/15 02:34:51;;;;;;;;;2.00;1.00;;;;;;;;5519209;25;44343;-78
2024/04/15 02:37:17;;;;;;;;;4.00;1.00;;;;;;;;5506881;25;43876;-81
2024/04/15 02:39:43;;;;;;;;;2.00;2.00;;;;;;;;5509329;25;44758;-81
2024/04/15 02:42:08;;;;;;;;;0.00;0.00;;;;;;;;5497750;25;45373;-80
2024/04/15 02:44:35;;;;;;;;;0.00;0.00;;;;;;;;5515452;25;44866;-79
2024/04/15 02:47:02;;;;;;;;;1.00;0.67;;;;;;;;5509829;25;43801;-80
2024/04/15 02:49:30;;;;;;;;;3.00;0.00;;;;;;;;5509373;25;44434;-81
2024/04/15 02:51:58;;;;;;;;;3.00;1.67;;;;;;;;5501259;25;44096;-79
2024/04/15 02:54:26;;;;;;;;;2.00;0.33;;;;;;;;5511116;25;44439;-81
2024/04/15 02:57:03;;;;;;;;;4.50;2.00;;;;;;;;5500121;25;44342;-79
2024/04/15 02:59:40;;;;;;;;;2.00;1.00;;;;;;;;5512294;25;44465;-78
2024/04/15 03:02:07;;;;;;;;;2.33;1.00;;;;;;;;5512224;25;44034;-80
2024/04/15 03:04:32;;;;;;;;;3.00;2.00;;;;;;;;5513022;25;44378;-79
2024/04/15 03:06:58;;;;;;;;;3.33;1.67;;;;;;;;5524115;25;44009;-79
2024/04/15 03:09:26;;;;;;;;;5.00;3.00;;;;;;;;5514102;25;44370;-78
2024/04/15 03:11:51;;;;;;;;;3.33;2.33;;;;;;;;5507826;25;46601;-79
2024/04/15 03:14:16;;;;;;;;;3.00;1.00;;;;;;;;5513954;25;44252;-80
2024/04/15 03:16:45;;;;;;;;;2.33;1.33;;;;;;;;5518540;25;43901;-80
2024/04/15 03:19:10;;;;;;;;;5.00;4.00;;;;;;;;5510680;25;44934;-79
2024/04/15 03:21:36;;;;;;;;;2.33;1.67;;;;;;;;5513231;25;44867;-78
2024/04/15 03:24:01;;;;;;;;;3.33;2.00;;;;;;;;5512747;25;44034;-79
2024/04/15 03:26:27;;;;;;;;;5.00;1.33;;;;;;;;5506722;25;44103;-80
2024/04/15 03:28:52;;;;;;;;;3.67;1.67;;;;;;;;5507543;25;43954;-81
2024/04/15 03:31:18;;;;;;;;;0.67;0.67;;;;;;;;5513778;25;44773;-78
2024/04/15 03:33:44;;;;;;;;;7.67;3.00;;;;;;;;5508143;25;44103;-78
2024/04/15 03:36:10;;;;;;;;;0.00;0.00;;;;;;;;5503876;25;44367;-78
2024/04/15 03:38:36;;;;;;;;;3.67;2.00;;;;;;;;5503001;25;46533;-79
2024/04/15 03:41:01;;;;;;;;;3.00;3.00;;;;;;;;5497892;25;46901;-80
2024/04/15 03:43:27;;;;;;;;;1.33;0.00;;;;;;;;5506953;25;44172;-80
2024/04/15 03:45:52;;;;;;;;;5.67;3.00;;;;;;;;5508897;25;43914;-80
2024/04/15 03:48:17;;;;;;;;;3.00;2.00;;;;;;;;5511128;25;45018;-78
2024/04/15 03:50:43;;;;;;;;;3.67;2.67;;;;;;;;5513852;25;45053;-80
2024/04/15 03:53:08;;;;;;;;;1.33;1.00;;;;;;;;5517019;25;44466;-80
2024/04/15 03:55:34;;;;;;;;;2.00;2.00;;;;;;;;5518409;25;44356;-80
2024/04/15 03:57:59;;;;;;;;;2.67;1.33;;;;;;;;5509507;25;44093;-79
2024/04/15 04:00:25;;;;;;;;;3.00;3.00;;;;;;;;5495500;25;44468;-79
2024/04/15 04:02:50;;;;;;;;;5.67;5.67;;;;;;;;5520746;25;44006;-80
2024/04/15 04:05:16;;;;;;;;;3.67;2.00;;;;;;;;5492139;25;44305;-78
2024/04/15 04:07:41;;;;;;;;;3.00;1.00;;;;;;;;5498078;25;44462;-80
2024/04/15 04:10:06;;;;;;;;;5.00;2.00;;;;;;;;5490526;25;44864;-81
2024/04/15 04:12:32;;;;;;;;;6.00;2.00;;;;;;;;5504878;25;43831;-80
2024/04/15 04:14:57;;;;;;;;;3.00;2.00;;;;;;;;5508064;25;43999;-79
2024/04/15 04:17:23;;;;;;;;;2.67;2.67;;;;;;;;5506774;25;44510;-79
2024/04/15 04:19:48;;;;;;;;;4.00;3.00;;;;;;;;5512570;25;44323;-79
2024/04/15 04:22:13;;;;;;;;;3.33;3.00;;;;;;;;5515312;25;43903;-79
2024/04/15 04:24:39;;;;;;;;;4.33;3.00;;;;;;;;5492625;25;43864;-80
2024/04/15 04:27:06;;;;;;;;;1.67;1.67;;;;;;;;5490182;25;45276;-80
2024/04/15 04:29:33;;;;;;;;;7.00;6.00;;;;;;;;5495066;25;44357;-80
2024/04/15 04:31:58;;;;;;;;;5.00;3.00;;;;;;;;5517320;25;43927;-79
2024/04/15 04:34:23;;;;;;;;;4.00;4.00;;;;;;;;5497731;25;44171;-80
2024/04/15 04:36:49;;;;;;;;;2.67;2.67;;;;;;;;5490138;25;44809;-78
2024/04/15 04:39:17;;;;;;;;;4.00;1.00;;;;;;;;5499712;25;46599;-78
2024/04/15 04:41:43;;;;;;;;;7.33;4.00;;;;;;;;5523045;25;44308;-78
2024/04/15 04:44:11;;;;;;;;;10.00;6.00;;;;;;;;5485613;25;44345;-75
2024/04/15 04:46:39;;;;;;;;;7.00;4.00;;;;;;;;5500395;25;44398;-78
2024/04/15 04:49:05;;;;;;;;;3.00;2.00;;;;;;;;5484472;25;44347;-77
2024/04/15 04:51:31;;;;;;;;;2.00;2.00;;;;;;;;5477715;25;43896;-79
2024/04/15 04:53:57;;;;;;;;;4.00;3.00;;;;;;;;5504364;25;43924;-78
2024/04/15 04:56:22;;;;;;;;;3.33;3.33;;;;;;;;5489717;25;44442;-79
2024/04/15 04:58:48;;;;;;;;;3.00;3.00;;;;;;;;5479741;25;46236;-78
2024/04/15 05:01:16;;;;;;;;;2.00;2.00;;;;;;;;5499445;25;44244;-77
2024/04/15 05:03:45;;;;;;;;;3.00;3.00;;;;;;;;5494362;25;43956;-78
2024/04/15 05:06:16;;;;;;;;;3.00;3.00;;;;;;;;5471131;25;44109;-80
2024/04/15 05:08:42;;;;;;;;;3.00;2.00;;;;;;;;5494003;25;44058;-81
2024/04/15 05:11:08;;;;;;;;;1.33;1.00;;;;;;;;5489352;25;44375;-78
2024/04/15 05:13:34;;;;;;;;;3.67;3.00;;;;;;;;5478860;25;44614;-80
2024/04/15 05:16:09;;;;;;;;;10.33;8.00;;;;;;;;5504058;25;44663;-79
2024/04/15 05:18:35;;;;;;;;;4.00;1.00;;;;;;;;5500357;25;44502;-80
2024/04/15 05:21:00;;;;;;;;;2.67;1.67;;;;;;;;5467757;25;44370;-76
2024/04/15 05:23:26;;;;;;;;;3.00;1.00;;;;;;;;5494941;25;44372;-74
2024/04/15 05:25:51;;;;;;;;;8.00;6.00;;;;;;;;5497053;25;44387;-74
2024/04/15 05:28:17;;;;;;;;;2.33;2.00;;;;;;;;5487736;25;46347;-76
2024/04/15 05:30:42;;;;;;;;;4.33;4.33;;;;;;;;5496374;25;44459;-74
2024/04/15 05:33:07;;;;;;;;;4.00;4.00;;;;;;;;5497104;25;44433;-79
2024/04/15 05:35:33;;;;;;;;;3.00;2.00;;;;;;;;5508895;25;44625;-82
2024/04/15 05:37:58;;;;;;;;;5.00;2.33;;;;;;;;5483552;25;44266;-81
2024/04/15 05:40:24;;;;;;;;;4.67;2.00;;;;;;;;5491947;25;43925;-80
2024/04/15 05:42:49;;;;;;;;;6.00;5.00;;;;;;;;5503575;25;43872;-81
2024/04/15 05:45:15;;;;;;;;;4.00;3.00;;;;;;;;5515296;25;43567;-81
2024/04/15 05:47:41;;;;;;;;;3.67;3.67;;;;;;;;5499981;25;43512;-80
2024/04/15 05:50:07;;;;;;;;;3.67;2.67;;;;;;;;5517301;25;43220;-81
2024/04/15 05:52:32;;;;;;;;;1.67;1.67;;;;;;;;5516127;25;43265;-80
2024/04/15 05:54:59;;;;;;;;;4.33;3.67;;;;;;;;5517211;25;43965;-81
2024/04/15 05:57:25;;;;;;;;;8.67;7.33;;;;;;;;5516477;25;45127;-81
2024/04/15 05:59:50;;;;;;;;;6.33;5.33;;;;;;;;5516563;25;43235;-81
2024/04/15 06:02:21;;;;;;;;;4.67;3.33;;;;;;;;5514681;25;43903;-82
2024/04/15 06:05:07;;;;;;;;;3.00;2.00;;;;;;;;5512998;25;43316;-80
2024/04/15 06:07:33;;;;;;;;;5.00;2.00;;;;;;;;5515682;25;45897;-81
2024/04/15 06:09:59;;;;;;;;;4.67;3.00;;;;;;;;5516730;25;43277;-81
2024/04/15 06:12:28;;;;;;;;;1.33;0.33;;;;;;;;5515160;25;43942;-82
2024/04/15 06:14:55;;;;;;;;;3.00;2.00;;;;;;;;5514377;25;44400;-80
2024/04/15 06:17:31;;;;;;;;;4.33;2.00;;;;;;;;5509402;25;45137;-83
2024/04/15 06:19:57;;;;;;;;;7.00;7.00;;;;;;;;5477447;25;43888;-80
2024/04/15 06:22:23;;;;;;;;;4.00;4.00;;;;;;;;5505686;25;43973;-80
2024/04/15 06:24:49;;;;;;;;;2.00;2.00;;;;;;;;5514801;25;43857;-82
2024/04/15 06:27:16;;;;;;;;;5.33;3.33;;;;;;;;5514199;25;44305;-81
2024/04/15 06:29:41;;;;;;;;;2.00;2.00;;;;;;;;5513802;25;43266;-81
2024/04/15 06:32:07;;;;;;;;;3.25;2.75;;;;;;;;5515713;25;43319;-81
2024/04/15 06:34:33;;;;;;;;;1.50;1.00;;;;;;;;5520646;25;44194;-83
2024/04/15 06:36:59;;;;;;;;;1.25;1.25;;;;;;;;5519375;25;45184;-83
2024/04/15 06:39:30;;;;;;;;;4.50;4.50;;;;;;;;5519267;25;43992;-81
2024/04/15 06:41:59;;;;;;;;;2.00;2.00;;;;;;;;5519272;25;43446;-82
2024/04/15 06:44:26;;;;;;;;;3.25;2.00;;;;;;;;5519071;25;43984;-82
2024/04/15 06:46:51;;;;;;;;;4.00;4.00;;;;;;;;5519819;25;44926;-81
2024/04/15 06:49:17;;;;;;;;;1.25;1.25;;;;;;;;5519142;25;43204;-82
2024/04/15 06:51:44;;;;;;;;;1.50;0.50;;;;;;;;5519945;25;43169;-83
2024/04/15 06:54:11;;;;;;;;;0.75;0.75;;;;;;;;5513068;25;43918;-82
2024/04/15 06:56:36;;;;;;;;;4.00;1.00;;;;;;;;5518234;25;44821;-82
2024/04/15 06:59:02;;;;;;;;;1.75;1.00;;;;;;;;5518536;25;43211;-83
2024/04/15 07:01:27;;;;;;;;;2.00;2.00;;;;;;;;5487846;25;43288;-86
2024/04/15 07:03:54;;;;;;;;;2.50;0.00;;;;;;;;5510095;25;43737;-81
2024/04/15 07:06:22;;;;;;;;;2.00;0.50;;;;;;;;5533231;25;44066;-84
2024/04/15 07:08:50;;;;;;;;;0.25;0.00;;;;;;;;5532719;25;43166;-83
2024/04/15 07:11:16;;;;;;;;;1.00;0.00;;;;;;;;5515675;25;43233;-81
2024/04/15 07:13:42;;;;;;;;;1.00;1.00;;;;;;;;5482148;26;44709;-84
2024/04/15 07:16:11;;;;;;;;;1.00;1.00;;;;;;;;5482811;25;43805;-86
2024/04/15 07:18:41;;;;;;;;;0.00;0.00;;;;;;;;5483635;25;43420;-88
2024/04/15 07:21:43;;;;;;;;;0.00;0.00;;;;;;;;5518879;25;43292;-88
2024/04/15 07:24:11;;;;;;;;;2.50;1.00;;;;;;;;5481273;25;44658;-81
2024/04/15 07:26:37;;;;;;;;;3.00;0.00;;;;;;;;5490374;25;43672;-81
2024/04/15 07:29:03;;;;;;;;;2.50;1.50;;;;;;;;5521674;25;43961;-79
2024/04/15 07:31:28;;;;;;;;;2.00;2.00;;;;;;;;5504021;25;43194;-81
2024/04/15 07:33:54;;;;;;;;;4.00;1.00;;;;;;;;5514224;25;43295;-81
2024/04/15 07:36:20;;;;;;;;;0.00;0.00;;;;;;;;5516908;25;43871;-80
2024/04/15 07:38:46;;;;;;;;;2.00;0.00;;;;;;;;5516791;25;43164;-80
2024/04/15 07:41:15;;;;;;;;;0.50;0.50;;;;;;;;5514567;25;43889;-79
2024/04/15 07:43:40;;;;;;;;;0.00;0.00;;;;;;;;5520828;25;43797;-82
2024/04/15 07:46:05;;;;;;;;;1.00;1.00;;;;;;;;5511114;25;46039;-80
2024/04/15 07:48:37;;;;;;;;;0.00;0.00;;;;;;;;5502648;25;43474;-82
2024/04/15 07:51:03;;;;;;;;;0.25;0.00;;;;;;;;5504782;25;43936;-74
2024/04/15 07:53:28;;;;;;;;;0.00;0.00;;;;;;;;5502894;25;44604;-76
2024/04/15 07:55:54;;;;;;;;;3.25;1.00;;;;;;;;5504869;25;44526;-78
2024/04/15 07:58:19;;;;;;;;;0.25;0.25;;;;;;;;5507291;25;43939;-79
2024/04/15 08:00:45;;;;;;;;;0.75;0.00;;;;;;;;5514506;25;43937;-81
2024/04/15 08:03:10;;;;;;;;;1.25;0.25;;;;;;;;5504499;25;44090;-78
2024/04/15 08:05:35;;;;;;;;;2.50;1.00;;;;;;;;5481367;25;44320;-77
2024/04/15 08:08:01;;;;;;;;;1.00;0.25;;;;;;;;5498880;25;43952;-79
2024/04/15 08:10:26;;;;;;;;;0.00;0.00;;;;;;;;5492106;25;44245;-79
2024/04/15 08:12:51;;;;;;;;;1.00;1.00;;;;;;;;5507315;25;44041;-78
2024/04/15 08:15:17;;;;;;;;;0.00;0.00;;;;;;;;5509725;25;43732;-79
2024/04/15 08:17:43;;;;;;;;;0.75;0.75;;;;;;;;5514973;25;44059;-80
2024/04/15 08:20:08;;;;;;;;;2.00;0.00;;;;;;;;5514712;25;44063;-78
2024/04/15 08:22:33;;;;;;;;;0.00;0.00;;;;;;;;5504893;25;45763;-77
2024/04/15 08:24:59;;;;;;;;;0.50;0.00;;;;;;;;5499508;25;45867;-73
2024/04/15 08:27:24;;;;;;;;;0.00;0.00;;;;;;;;5505970;25;43972;-77
2024/04/15 08:29:49;;;;;;;;;0.00;0.00;;;;;;;;5499487;25;43836;-73
2024/04/15 08:32:15;;;;;;;;;1.00;0.25;;;;;;;;5505909;25;44420;-73
2024/04/15 08:34:40;;;;;;;;;0.75;0.00;;;;;;;;5481717;25;45461;-74
2024/04/15 08:37:07;;;;;;;;;1.00;1.00;;;;;;;;5505569;25;44016;-77
2024/04/15 08:39:35;;;;;;;;;1.25;0.00;;;;;;;;5507706;25;43817;-78
2024/04/15 08:42:07;;;;;;;;;3.00;0.75;;;;;;;;5480733;25;44363;-78
2024/04/15 08:44:33;;;;;;;;;0.00;0.00;;;;;;;;5501670;25;46447;-76
2024/04/15 08:47:00;;;;;;;;;0.00;0.00;;;;;;;;5510627;25;43222;-82
2024/04/15 08:49:26;;;;;;;;;1.25;1.00;;;;;;;;5512425;25;44367;-79
2024/04/15 08:51:52;;;;;;;;;0.00;0.00;;;;;;;;5501303;25;44303;-77
2024/04/15 08:54:19;;;;;;;;;0.75;0.75;;;;;;;;5508869;25;45676;-79
2024/04/15 08:56:46;;;;;;;;;0.00;0.00;;;;;;;;5510951;25;43818;-81
2024/04/15 08:59:14;;;;;;;;;0.25;0.00;;;;;;;;5531451;25;43772;-80
2024/04/15 09:02:04;;;;;;;;;1.00;0.00;;;;;;;;5501147;25;44555;-81
2024/04/15 09:04:31;;;;;;;;;0.25;0.25;;;;;;;;5511637;25;44083;-80
2024/04/15 09:06:59;;;;;;;;;2.25;0.75;;;;;;;;5510451;25;44631;-80
2024/04/15 09:09:24;;;;;;;;;2.00;1.00;;;;;;;;5511818;25;44010;-81
2024/04/15 09:11:52;;;;;;;;;0.00;0.00;;;;;;;;5491756;25;43311;-80
2024/04/15 09:14:17;;;;;;;;;3.50;0.75;;;;;;;;5487170;25;46131;-80
2024/04/15 09:16:43;;;;;;;;;0.00;0.00;;;;;;;;5511753;25;43934;-80
2024/04/15 09:19:09;;;;;;;;;0.00;0.00;;;;;;;;5512027;25;43877;-80
2024/04/15 09:21:36;;;;;;;;;0.00;0.00;;;;;;;;5508387;25;44890;-78
2024/04/15 09:24:02;;;;;;;;;1.00;0.00;;;;;;;;5510219;25;43901;-79
2024/04/15 09:26:27;;;;;;;;;0.00;0.00;;;;;;;;5504426;25;43971;-80
2024/04/15 09:28:53;;;;;;;;;1.00;0.00;;;;;;;;5508932;25;43212;-79
2024/04/15 09:31:18;;;;;;;;;1.25;0.00;;;;;;;;5519089;25;43890;-78
2024/04/15 09:33:47;;;;;;;;;1.25;1.00;;;;;;;;5506435;25;44226;-80
2024/04/15 09:36:13;;;;;;;;;1.00;0.00;;;;;;;;5512177;25;44542;-80
2024/04/15 09:38:39;;;;;;;;;2.00;1.00;;;;;;;;5519943;25;43823;-78
2024/04/15 09:41:06;;;;;;;;;0.00;0.00;;;;;;;;5507586;25;44135;-77
2024/04/15 09:43:31;;;;;;;;;2.00;1.00;;;;;;;;5507412;25;44293;-80
2024/04/15 09:45:58;;;;;;;;;1.00;1.00;;;;;;;;5508410;25;44304;-78
2024/04/15 09:48:26;;;;;;;;;1.00;0.00;;;;;;;;5509184;25;43435;-79
2024/04/15 09:50:53;;;;;;;;;1.00;1.00;;;;;;;;5507059;25;44003;-80
2024/04/15 09:53:32;;;;;;;;;0.00;0.00;;;;;;;;5504152;25;46565;-79
2024/04/15 09:56:02;;;;;;;;;0.00;0.00;;;;;;;;5509202;25;43900;-81
2024/04/15 09:58:29;;;;;;;;;1.00;0.00;;;;;;;;5539454;25;44058;-80
2024/04/15 10:01:01;;;;;;;;;0.00;0.00;;;;;;;;5482671;25;44489;-80
2024/04/15 10:03:30;;;;;;;;;0.00;0.00;;;;;;;;5502284;25;46692;-80
2024/04/15 10:05:56;;;;;;;;;0.00;0.00;;;;;;;;5509180;25;43888;-81
2024/04/15 10:08:23;;;;;;;;;0.00;0.00;;;;;;;;5512367;25;43286;-79
2024/04/15 10:10:56;;;;;;;;;0.00;0.00;;;;;;;;5509005;25;44514;-82
2024/04/15 10:13:21;;;;;;;;;0.00;0.00;;;;;;;;5508623;25;45615;-81
2024/04/15 10:15:50;;;;;;;;;0.00;0.00;;;;;;;;5505714;25;43806;-79
2024/04/15 10:21:59;;;;;;;;;;;;;;;;;;;;;
2024/04/15 10:24:38;;;;;;;;;;;;;;;;;;;;;
2024/04/15 10:27:15;;;;;;;;;8.00;6.00;;;;;;;;5459681;26;70858;-79
2024/04/15 10:35:39;;;;;;;;;0.00;0.00;;;;;;;;5421677;26;45223;-79
2024/04/15 10:38:11;;;;;;;;;0.80;0.00;;;;;;;;5464940;26;44338;-79
2024/04/15 10:41:06;;;;;;;;;0.00;0.00;;;;;;;;5437652;26;43265;-82
2024/04/15 10:46:50;;;;;;;;;4.50;4.00;;;;;;;;5322972;26;44637;-81
2024/04/15 10:49:16;;;;;;;;;2.00;0.00;;;;;;;;5367096;26;43263;-81
2024/04/15 10:51:46;;;;;;;;;2.00;0.00;;;;;;;;5399897;26;44435;-81
2024/04/15 10:54:12;;;;;;;;;0.25;0.00;;;;;;;;5385140;26;44648;-79
2024/04/15 10:56:40;;;;;;;;;1.00;0.00;;;;;;;;5332498;26;45310;-81
2024/04/15 10:59:40;;;;;;;;;;;;;;;;;;;;;
2024/04/15 11:02:28;;;;;;;;;;;;;;;;;;;;;
2024/04/15 11:04:55;;;;;;;;;0.00;0.00;;;;;;;;5496603;25;74500;-78
2024/04/15 11:13:39;;;;;;;;;1.00;0.50;;;;;;;;5434729;25;44176;-79
2024/04/15 11:16:04;;;;;;;;;0.00;0.00;;;;;;;;5509583;25;44376;-80
2024/04/15 11:18:34;;;;;;;;;0.00;0.00;;;;;;;;5503650;25;44936;-81
2024/04/15 11:21:02;;;;;;;;;1.33;0.67;;;;;;;;5506731;25;43900;-80
2024/04/15 11:23:28;;;;;;;;;0.33;0.33;;;;;;;;5539904;25;44413;-80
2024/04/15 11:25:56;;;;;;;;;1.00;0.00;;;;;;;;5511172;25;44523;-79
2024/04/15 11:28:23;;;;;;;;;1.00;1.00;;;;;;;;5508620;25;45701;-80
2024/04/15 11:30:51;;;;;;;;;1.00;0.00;;;;;;;;5510531;25;43969;-80
2024/04/15 11:33:19;;;;;;;;;1.00;0.00;;;;;;;;5511279;25;44017;-80
2024/04/15 11:36:01;;;;;;;;;0.00;0.00;;;;;;;;5504144;25;44378;-79
2024/04/15 11:38:29;;;;;;;;;0.00;0.00;;;;;;;;5509709;25;45137;-81
2024/04/15 11:41:52;;;;;;;;;;;;;;;;;;;;;
2024/04/15 11:44:38;;;;;;;;;;;;;;;;;;;;;
2024/04/15 11:47:11;;;;;;;;;0.00;0.00;;;;;;;;5504726;25;72322;-81
2024/04/15 11:52:40;;;;;;;;;1.67;1.00;;;;;;;;5491113;25;43471;-81
2024/04/15 11:55:47;;;;;;;;;2.00;2.00;;;;;;;;5463532;26;44332;-81
2024/04/15 11:58:13;;;;;;;;;0.00;0.00;;;;;;;;5498724;25;44532;-80
2024/04/15 12:00:41;;;;;;;;;1.00;0.00;;;;;;;;5502033;25;44130;-80
2024/04/15 12:03:07;;;;;;;;;1.00;0.00;;;;;;;;5491096;25;43764;-80
2024/04/15 12:05:37;;;;;;;;;0.00;0.00;;;;;;;;5499337;25;43595;-79
2024/04/15 12:08:06;;;;;;;;;0.67;0.00;;;;;;;;5501742;25;44781;-80
2024/04/15 12:10:34;;;;;;;;;0.00;0.00;;;;;;;;5474646;25;44309;-80
2024/04/15 12:12:59;;;;;;;;;1.33;0.00;;;;;;;;5510467;25;43241;-80
2024/04/15 12:15:25;;;;;;;;;0.00;0.00;;;;;;;;5500473;25;43966;-80
2024/04/15 12:17:51;;;;;;;;;3.67;1.33;;;;;;;;5509721;25;44484;-79
2024/04/15 12:20:16;;;;;;;;;5.33;5.33;;;;;;;;5508089;25;45611;-79
2024/04/15 12:22:41;;;;;;;;;6.00;5.33;;;;;;;;5509266;25;43797;-79
2024/04/15 12:25:09;;;;;;;;;4.33;3.33;;;;;;;;5509760;25;44194;-80
2024/04/15 12:27:34;;;;;;;;;10.00;5.33;;;;;;;;5508076;25;45136;-79
2024/04/15 12:30:20;;;;;;;;;19.00;16.00;;;;;;;;5496561;25;43938;-81
2024/04/15 12:32:45;;;;;;;;;8.00;6.00;;;;;;;;5509373;25;43137;-79
2024/04/15 12:35:10;;;;;;;;;10.67;8.33;;;;;;;;5502309;25;43940;-79
2024/04/15 12:37:39;;;;;;;;;11.00;5.33;;;;;;;;5501002;25;44046;-80
2024/04/15 12:40:07;;;;;;;;;3.67;2.33;;;;;;;;5510355;25;45218;-80
2024/04/15 12:42:35;;;;;;;;;6.00;5.00;;;;;;;;5507420;25;43968;-81
2024/04/15 12:45:00;;;;;;;;;4.67;3.33;;;;;;;;5509339;25;44407;-81
2024/04/15 12:47:25;;;;;;;;;2.67;2.00;;;;;;;;5506132;25;43856;-81
2024/04/15 12:49:51;;;;;;;;;3.00;3.00;;;;;;;;5512552;25;43872;-80
2024/04/15 12:52:16;;;;;;;;;0.33;0.00;;;;;;;;5509953;25;43857;-79
2024/04/15 12:54:41;;;;;;;;;3.67;3.67;;;;;;;;5510379;25;43273;-80
2024/04/15 12:57:10;;;;;;;;;2.00;2.00;;;;;;;;5510167;25;43598;-79
2024/04/15 12:59:35;;;;;;;;;3.33;3.00;;;;;;;;5507715;25;44534;-80
2024/04/15 13:02:03;;;;;;;;;2.00;2.00;;;;;;;;5506931;25;43990;-78
2024/04/15 13:04:28;;;;;;;;;1.33;1.00;;;;;;;;5509485;25;43921;-80
2024/04/15 13:06:54;;;;;;;;;2.67;2.67;;;;;;;;5508359;25;44380;-81
2024/04/15 13:09:19;;;;;;;;;4.00;1.00;;;;;;;;5500442;25;43857;-80
2024/04/15 13:11:45;;;;;;;;;3.33;1.33;;;;;;;;5516341;25;43243;-81
2024/04/15 13:14:11;;;;;;;;;1.00;0.00;;;;;;;;5505186;25;43250;-80
2024/04/15 13:16:36;;;;;;;;;0.00;0.00;;;;;;;;5505400;25;44404;-78
2024/04/15 13:19:02;;;;;;;;;2.00;1.00;;;;;;;;5506370;25;44188;-79
2024/04/15 13:21:28;;;;;;;;;0.67;0.00;;;;;;;;5507413;25;43812;-80
2024/04/15 13:23:55;;;;;;;;;1.67;0.33;;;;;;;;5524040;25;44083;-78
2024/04/15 13:26:24;;;;;;;;;1.00;0.67;;;;;;;;5510537;25;45610;-80
2024/04/15 13:28:53;;;;;;;;;0.00;0.00;;;;;;;;5525630;25;44561;-80
2024/04/15 13:31:19;;;;;;;;;0.00;0.00;;;;;;;;5519575;25;43834;-79
2024/04/15 13:33:47;;;;;;;;;0.00;0.00;;;;;;;;5534591;25;44523;-81
2024/04/15 13:36:12;;;;;;;;;1.00;1.00;;;;;;;;5514361;25;45646;-81
2024/04/15 13:38:37;;;;;;;;;2.00;1.00;;;;;;;;5505627;25;46355;-81
2024/04/15 13:41:03;;;;;;;;;1.75;0.00;;;;;;;;5502682;25;43927;-80
2024/04/15 13:43:29;;;;;;;;;0.00;0.00;;;;;;;;5483990;25;43945;-80
2024/04/15 13:45:54;;;;;;;;;0.00;0.00;;;;;;;;5506306;25;43851;-82
2024/04/15 13:48:20;;;;;;;;;1.00;0.00;;;;;;;;5501778;25;45831;-80
2024/04/15 13:50:47;;;;;;;;;0.00;0.00;;;;;;;;5508981;25;43293;-79
2024/04/15 13:53:12;;;;;;;;;0.00;0.00;;;;;;;;5511147;25;43994;-80
2024/04/15 13:55:41;;;;;;;;;1.00;1.00;;;;;;;;5506379;25;44868;-82
2024/04/15 13:58:06;;;;;;;;;1.67;1.00;;;;;;;;5509455;25;45177;-82
2024/04/15 14:00:31;;;;;;;;;0.00;0.00;;;;;;;;5501000;25;43899;-80
2024/04/15 14:03:01;;;;;;;;;0.67;0.00;;;;;;;;5502389;25;43262;-80
2024/04/15 14:05:26;;;;;;;;;2.67;0.00;;;;;;;;5507178;25;44705;-81
2024/04/15 14:07:51;;;;;;;;;0.00;0.00;;;;;;;;5500651;25;45682;-80
2024/04/15 14:10:17;;;;;;;;;0.00;0.00;;;;;;;;5512486;25;43818;-81
2024/04/15 14:12:43;;;;;;;;;2.00;2.00;;;;;;;;5512114;25;43364;-80
2024/04/15 14:15:08;;;;;;;;;0.00;0.00;;;;;;;;5510044;25;43761;-81
2024/04/15 14:17:34;;;;;;;;;0.00;0.00;;;;;;;;5500027;25;43944;-79
2024/04/15 14:19:59;;;;;;;;;1.67;0.00;;;;;;;;5497560;25;43210;-80
2024/04/15 14:22:25;;;;;;;;;0.00;0.00;;;;;;;;5508520;25;43835;-82
2024/04/15 14:24:50;;;;;;;;;0.33;0.33;;;;;;;;5507389;25;43927;-81
2024/04/15 14:27:15;;;;;;;;;1.67;0.00;;;;;;;;5512270;25;43926;-82
2024/04/15 14:29:41;;;;;;;;;3.00;0.00;;;;;;;;5514490;25;43947;-83
2024/04/15 14:32:06;;;;;;;;;0.00;0.00;;;;;;;;5505388;25;43811;-79
2024/04/15 14:34:34;;;;;;;;;0.33;0.00;;;;;;;;5511324;25;43934;-81
2024/04/15 14:37:00;;;;;;;;;1.00;1.00;;;;;;;;5502552;25;45122;-80
2024/04/15 14:39:26;;;;;;;;;2.33;0.00;;;;;;;;5493287;25;43861;-80
2024/04/15 14:41:52;;;;;;;;;1.00;1.00;;;;;;;;5504105;25;43583;-79
2024/04/15 14:44:17;;;;;;;;;2.00;1.00;;;;;;;;5500269;25;43900;-79
2024/04/15 14:46:43;;;;;;;;;1.00;1.00;;;;;;;;5497632;25;44831;-81
2024/04/15 14:49:09;;;;;;;;;4.33;3.33;;;;;;;;5514126;25;44244;-80
2024/04/15 14:51:35;;;;;;;;;1.00;1.00;;;;;;;;5511081;25;43247;-79
2024/04/15 14:54:00;;;;;;;;;0.67;0.00;;;;;;;;5509484;25;45681;-81
2024/04/15 14:56:26;;;;;;;;;1.00;1.00;;;;;;;;5506770;25;46971;-81
2024/04/15 14:58:53;;;;;;;;;0.00;0.00;;;;;;;;5525106;25;43877;-82
2024/04/15 15:01:19;;;;;;;;;1.33;1.33;;;;;;;;5525986;25;44029;-80
2024/04/15 15:03:45;;;;;;;;;1.67;1.67;;;;;;;;5524126;25;44415;-82
2024/04/15 15:06:11;;;;;;;;;0.00;0.00;;;;;;;;5541818;25;45709;-79
2024/04/15 15:08:41;;;;;;;;;1.00;1.00;;;;;;;;5514260;25;43976;-80
2024/04/15 15:11:07;;;;;;;;;0.67;0.67;;;;;;;;5501933;25;43461;-79
2024/04/15 15:13:35;;;;;;;;;1.00;1.00;;;;;;;;5513978;25;43410;-80
2024/04/15 15:16:01;;;;;;;;;3.00;1.00;;;;;;;;5504790;25;43905;-81